Decoded Metar for VGEG (CHITTAGONG in BANGLADESH) (IATA:CGP) | Meteo·Mobile Aviation Weather
aviador You're here:

VGEG Decoded Metar

CHITTAGONG in BANGLADESH
Report Time2019-03-21 00:00:00
UTC Time2019-03-21 00:07:10
Flight Rules ifr IFR
WindCalm
Visibility3200 m
Phenomena:Haze
Clouds:Scattered 016 Hf
Broken 100 Hf
Expected CloudBase > 400 ft AGL from Temp-Dew spread
Ceiling10,000 ft
Temp24°C (ISA +9)
Dew Point23°C (94% RH)
QNH1012 hPa
Density Alt1,470 ft
Elevation20 ft
Report Wrong Elevation
Raw Report
METAR VGEG 210000Z 00000KT 3200 HZ SCT016 BKN100 24/23 Q1012
TEMPO P/VIS=

Extra information for VGEG:More info

Metar Taf Metar & Taf Last 4 Metars F.Rules Stats Wind Profile Meteogram Temp Stats Airport Information Weather charts Add Link Nearby VenuesMetar ALERT Operation Metar Decoded Social comments